createdAt,value
2023-04-22T00:02:06.656Z,14.02
2023-04-22T00:04:52.199Z,15.55
2023-04-22T00:07:37.809Z,13.50
2023-04-22T00:10:23.224Z,13.90
2023-04-22T00:13:08.524Z,14.07
2023-04-22T00:15:54.158Z,17.42
2023-04-22T00:18:39.593Z,15.32
2023-04-22T00:21:24.980Z,14.93
2023-04-22T00:24:10.427Z,14.93
2023-04-22T00:26:55.920Z,15.82
2023-04-22T00:29:41.565Z,15.98
2023-04-22T00:32:26.931Z,15.00
2023-04-22T00:35:12.276Z,14.88
2023-04-22T00:37:58.401Z,16.58
2023-04-22T00:40:43.715Z,17.90
2023-04-22T00:43:29.246Z,16.55
2023-04-22T00:46:16.515Z,16.15
2023-04-22T00:49:02.337Z,12.95
2023-04-22T00:51:47.388Z,18.48
2023-04-22T00:54:35.260Z,15.75
2023-04-22T00:57:20.782Z,13.82
2023-04-22T01:00:09.668Z,15.65
2023-04-22T01:02:55.763Z,15.90
2023-04-22T01:05:41.701Z,15.43
2023-04-22T01:08:31.803Z,13.43
2023-04-22T01:11:17.049Z,13.55
2023-04-22T01:14:03.758Z,12.82
2023-04-22T01:16:50.439Z,11.82
2023-04-22T01:19:35.772Z,11.65
2023-04-22T01:22:22.612Z,11.25
2023-04-22T01:25:09.172Z,10.32
2023-04-22T01:27:55.173Z,10.38
2023-04-22T01:30:41.649Z,10.52
2023-04-22T01:33:27.224Z,10.95
2023-04-22T01:36:13.300Z,10.68
2023-04-22T01:38:59.188Z,11.02
2023-04-22T01:41:45.879Z,9.73
2023-04-22T01:44:31.317Z,11.07
2023-04-22T01:47:16.776Z,10.43
2023-04-22T01:50:02.091Z,11.27
2023-04-22T01:52:48.743Z,11.52
2023-04-22T01:55:36.053Z,12.48
2023-04-22T01:58:21.273Z,17.00
2023-04-22T02:01:09.280Z,14.23
2023-04-22T02:03:55.591Z,17.40
2023-04-22T02:06:41.845Z,15.50
2023-04-22T02:09:27.319Z,15.65
2023-04-22T02:12:12.691Z,15.68
2023-04-22T02:14:59.373Z,15.23
2023-04-22T02:17:46.200Z,14.98
2023-04-22T02:20:31.487Z,16.02
2023-04-22T02:23:17.051Z,16.63
2023-04-22T02:26:03.673Z,16.77
2023-04-22T02:28:49.176Z,17.33
2023-04-22T02:31:34.520Z,17.10
2023-04-22T02:34:20.340Z,16.23
2023-04-22T02:37:05.731Z,18.85
2023-04-22T02:39:51.218Z,18.30
2023-04-22T02:42:36.597Z,19.30
2023-04-22T02:45:22.508Z,18.48
2023-04-22T02:48:07.858Z,18.08
2023-04-22T02:50:54.342Z,17.10
2023-04-22T02:53:39.773Z,19.70
2023-04-22T02:56:26.010Z,19.30
2023-04-22T02:59:11.631Z,20.10
2023-04-22T03:01:57.037Z,22.83
2023-04-22T03:04:55.524Z,19.70
2023-04-22T03:07:41.925Z,21.98
2023-04-22T03:10:27.302Z,19.25
2023-04-22T03:13:14.252Z,20.60
2023-04-22T03:15:59.883Z,20.23
2023-04-22T03:18:45.659Z,23.02
2023-04-22T03:21:32.305Z,25.98
2023-04-22T03:24:18.682Z,22.98
2023-04-22T03:27:07.822Z,24.85
2023-04-22T03:29:53.154Z,26.33
2023-04-22T03:32:38.487Z,24.73
2023-04-22T03:35:49.235Z,22.00
2023-04-22T03:38:34.611Z,22.13
2023-04-22T03:41:20.161Z,19.65
2023-04-22T03:44:07.098Z,24.50
2023-04-22T03:46:54.070Z,21.30
2023-04-22T03:49:43.353Z,22.08
2023-04-22T03:52:28.523Z,22.02
2023-04-22T03:55:17.418Z,21.38
2023-04-22T03:58:03.393Z,21.20
2023-04-22T04:00:49.399Z,21.85
2023-04-22T04:03:36.602Z,22.95
2023-04-22T04:06:22.313Z,20.13
2023-04-22T04:09:07.913Z,21.25
2023-04-22T04:11:53.775Z,23.38
2023-04-22T04:14:39.712Z,23.00
2023-04-22T04:17:25.746Z,23.08
2023-04-22T04:20:12.524Z,22.02
2023-04-22T04:22:58.706Z,23.67
2023-04-22T04:25:45.517Z,23.60
2023-04-22T04:28:33.050Z,20.73
2023-04-22T04:31:19.663Z,21.77
2023-04-22T04:34:05.526Z,21.00
2023-04-22T04:36:51.156Z,20.75
2023-04-22T04:39:45.747Z,23.15
2023-04-22T04:42:33.482Z,22.92
2023-04-22T04:45:24.462Z,22.08
2023-04-22T04:48:10.542Z,22.25
2023-04-22T04:50:59.406Z,22.15
2023-04-22T04:53:47.807Z,20.48
2023-04-22T04:56:34.568Z,21.90
2023-04-22T04:59:20.242Z,20.17
2023-04-22T05:02:06.408Z,25.52
2023-04-22T05:04:52.437Z,22.17
2023-04-22T05:07:38.193Z,25.20
2023-04-22T05:10:26.084Z,25.42
2023-04-22T05:13:11.768Z,24.92
2023-04-22T05:16:00.094Z,23.25
2023-04-22T05:18:45.992Z,26.25
2023-04-22T05:21:33.631Z,23.45
2023-04-22T05:24:18.936Z,24.85
2023-04-22T05:27:04.558Z,22.65
2023-04-22T05:29:50.932Z,22.80
2023-04-22T05:32:41.837Z,22.58
2023-04-22T05:35:27.567Z,21.50
2023-04-22T05:38:13.014Z,20.50
2023-04-22T05:41:00.199Z,18.90
2023-04-22T05:43:45.819Z,20.73
2023-04-22T05:46:35.385Z,19.48
2023-04-22T05:49:20.642Z,18.63
2023-04-22T05:52:31.246Z,19.83
2023-04-22T05:55:25.346Z,20.80
2023-04-22T05:58:11.784Z,19.00
2023-04-22T06:04:16.004Z,17.95
2023-04-22T06:07:01.690Z,19.10
2023-04-22T06:09:47.162Z,21.55
2023-04-22T06:12:34.534Z,19.52
2023-04-22T06:15:19.876Z,17.98
2023-04-22T06:18:05.750Z,18.52
2023-04-22T06:20:52.202Z,16.83
2023-04-22T06:23:37.818Z,16.85
2023-04-22T06:26:23.423Z,16.73
2023-04-22T06:29:08.733Z,16.80
2023-04-22T06:31:56.442Z,14.82
2023-04-22T06:34:42.636Z,15.48
2023-04-22T06:37:28.199Z,17.17
2023-04-22T06:40:14.769Z,15.18
2023-04-22T06:43:17.601Z,18.83
2023-04-22T06:46:38.858Z,17.60
2023-04-22T06:49:46.606Z,18.25
2023-04-22T06:52:55.363Z,17.08
2023-04-22T06:55:42.317Z,17.52
2023-04-22T06:58:28.247Z,17.30
2023-04-22T07:01:13.784Z,17.63
2023-04-22T07:04:00.348Z,18.00
2023-04-22T07:06:46.123Z,18.65
2023-04-22T07:09:32.017Z,19.58
2023-04-22T07:12:17.558Z,18.13
2023-04-22T07:15:03.082Z,18.63
2023-04-22T07:17:48.634Z,19.63
2023-04-22T07:20:34.197Z,16.65
2023-04-22T07:23:19.462Z,16.70
2023-04-22T07:26:05.008Z,16.15
2023-04-22T07:28:50.362Z,16.08
2023-04-22T07:31:36.585Z,16.02
2023-04-22T07:34:22.161Z,16.20
2023-04-22T07:37:09.296Z,17.60
2023-04-22T07:39:54.399Z,14.45
2023-04-22T07:42:40.251Z,15.07
2023-04-22T07:45:25.305Z,16.58
2023-04-22T07:48:10.848Z,16.45
2023-04-22T07:50:56.147Z,15.98
2023-04-22T07:53:41.645Z,16.63
2023-04-22T07:56:27.298Z,17.00
2023-04-22T07:59:12.427Z,14.43
2023-04-22T08:01:57.898Z,15.27
2023-04-22T08:04:43.610Z,14.75
2023-04-22T08:07:33.045Z,15.23
2023-04-22T08:10:18.734Z,14.32
2023-04-22T08:13:04.365Z,12.80
2023-04-22T08:15:49.899Z,12.30
2023-04-22T08:18:35.606Z,11.85
2023-04-22T08:21:21.041Z,11.25
2023-04-22T08:24:06.753Z,12.13
2023-04-22T08:26:51.849Z,11.98
2023-04-22T08:29:38.063Z,11.88
2023-04-22T08:32:26.419Z,11.60
2023-04-22T08:35:11.745Z,12.57
2023-04-22T08:37:57.303Z,11.52
2023-04-22T08:40:43.063Z,12.30
2023-04-22T08:43:28.434Z,12.65
2023-04-22T08:46:15.588Z,14.32
2023-04-22T08:49:03.923Z,12.65
2023-04-22T08:51:49.810Z,12.48
2023-04-22T08:54:37.355Z,13.02
2023-04-22T08:57:23.587Z,13.63
2023-04-22T09:00:09.877Z,13.35
2023-04-22T09:02:56.426Z,13.07
2023-04-22T09:05:43.478Z,13.68
2023-04-22T09:08:29.375Z,13.60
2023-04-22T09:11:15.146Z,15.45
2023-04-22T09:14:00.304Z,13.40
2023-04-22T09:16:49.874Z,14.65
2023-04-22T09:19:35.394Z,15.25
2023-04-22T09:22:20.805Z,13.38
2023-04-22T09:25:07.710Z,13.65
2023-04-22T09:27:58.132Z,12.95
2023-04-22T09:30:45.951Z,15.20
2023-04-22T09:33:31.750Z,14.68
2023-04-22T09:36:17.387Z,15.32
2023-04-22T09:39:04.945Z,14.15
2023-04-22T09:41:55.310Z,14.30
2023-04-22T09:44:40.653Z,15.45
2023-04-22T09:47:26.483Z,13.45
2023-04-22T09:50:11.985Z,14.23
2023-04-22T09:53:05.562Z,14.30
2023-04-22T09:55:53.678Z,17.45
2023-04-22T09:58:39.650Z,15.63
2023-04-22T10:01:42.513Z,13.82
2023-04-22T10:04:28.495Z,13.55
2023-04-22T10:07:15.190Z,12.55
2023-04-22T10:10:00.327Z,11.90
2023-04-22T10:12:47.329Z,10.60
2023-04-22T10:15:45.731Z,10.48
2023-04-22T10:18:33.095Z,12.65
2023-04-22T10:21:20.051Z,8.25
2023-04-22T10:24:05.906Z,10.63
2023-04-22T10:26:57.557Z,8.35
2023-04-22T10:29:43.515Z,10.38
2023-04-22T10:32:29.222Z,10.35
2023-04-22T10:35:15.160Z,9.70
2023-04-22T10:38:00.491Z,10.15
2023-04-22T10:41:01.718Z,10.35
2023-04-22T10:43:48.801Z,9.52
2023-04-22T10:46:37.751Z,9.05
2023-04-22T10:49:25.394Z,10.48
2023-04-22T10:52:28.244Z,7.18
2023-04-22T10:55:13.338Z,8.63
2023-04-22T10:57:59.650Z,7.90
2023-04-22T11:00:53.238Z,7.20
2023-04-22T11:03:40.056Z,7.40
2023-04-22T11:06:27.838Z,8.07
2023-04-22T11:09:13.092Z,7.63
2023-04-22T11:12:38.258Z,8.48
2023-04-22T11:15:23.550Z,7.00
2023-04-22T11:18:11.831Z,7.50
2023-04-22T11:20:57.169Z,6.93
2023-04-22T11:23:51.929Z,7.43
2023-04-22T11:26:37.555Z,8.00
2023-04-22T11:29:23.161Z,7.07
2023-04-22T11:32:11.611Z,6.57
2023-04-22T11:34:57.885Z,6.80
2023-04-22T11:37:56.793Z,6.95
2023-04-22T11:40:46.112Z,7.32
2023-04-22T11:43:32.736Z,8.52
2023-04-22T11:46:29.492Z,7.63
2023-04-22T11:49:16.049Z,7.55
2023-04-22T11:52:01.154Z,7.60
2023-04-22T11:54:46.786Z,6.30
2023-04-22T11:57:36.329Z,6.15
2023-04-22T12:00:23.500Z,8.10
2023-04-22T12:03:15.370Z,9.10
2023-04-22T12:06:03.781Z,12.77
2023-04-22T12:08:49.971Z,13.15
2023-04-22T12:11:35.435Z,13.15
2023-04-22T12:14:20.835Z,13.20
2023-04-22T12:17:09.475Z,12.25
2023-04-22T12:19:55.736Z,13.88
2023-04-22T12:22:41.166Z,14.88
2023-04-22T12:25:27.495Z,18.45
2023-04-22T12:28:12.635Z,19.17
2023-04-22T12:30:57.992Z,19.48
2023-04-22T12:33:44.472Z,20.33
2023-04-22T12:36:32.421Z,18.40
2023-04-22T12:39:18.978Z,19.27
2023-04-22T12:42:05.806Z,18.92
2023-04-22T12:44:51.028Z,26.75
2023-04-22T12:47:36.592Z,25.05
2023-04-22T12:50:21.870Z,24.52
2023-04-22T12:53:07.310Z,22.35
2023-04-22T12:55:52.722Z,22.83
2023-04-22T12:58:37.986Z,21.08
2023-04-22T13:01:23.560Z,21.85
2023-04-22T13:04:09.046Z,24.25
2023-04-22T13:06:57.025Z,31.92
2023-04-22T13:09:43.202Z,30.42
2023-04-22T13:12:28.608Z,28.15
2023-04-22T13:15:14.342Z,25.20
2023-04-22T13:17:59.855Z,23.67
2023-04-22T13:20:46.192Z,23.02
2023-04-22T13:23:32.552Z,23.00
2023-04-22T13:26:17.997Z,22.38
2023-04-22T13:29:03.576Z,24.10
2023-04-22T13:31:48.929Z,21.63
2023-04-22T13:34:34.649Z,21.27
2023-04-22T13:37:21.298Z,20.42
2023-04-22T13:40:08.301Z,20.73
2023-04-22T13:42:54.162Z,22.38
2023-04-22T13:45:40.941Z,21.35
2023-04-22T13:48:27.459Z,26.10
2023-04-22T13:51:13.059Z,26.27
2023-04-22T13:53:59.321Z,25.77
2023-04-22T13:56:44.694Z,31.88
2023-04-22T13:59:31.291Z,26.75
2023-04-22T14:02:16.826Z,27.83
2023-04-22T14:05:02.325Z,28.08
2023-04-22T14:07:47.773Z,24.77
2023-04-22T14:10:33.154Z,24.10
2023-04-22T14:13:19.015Z,26.95
2023-04-22T14:16:09.882Z,26.50
2023-04-22T14:18:55.909Z,28.60
2023-04-22T14:21:40.941Z,27.17
2023-04-22T14:24:26.868Z,28.00
2023-04-22T14:27:12.700Z,27.60
2023-04-22T14:29:58.957Z,28.55
2023-04-22T14:32:44.252Z,28.02
2023-04-22T14:35:29.697Z,28.17
2023-04-22T14:38:15.133Z,27.75
2023-04-22T14:41:00.518Z,26.98
2023-04-22T14:43:46.867Z,27.38
2023-04-22T14:46:32.055Z,35.10
2023-04-22T14:49:17.223Z,26.58
2023-04-22T14:52:02.723Z,34.47
2023-04-22T14:54:51.239Z,36.78
2023-04-22T14:57:38.262Z,38.20
2023-04-22T15:00:25.187Z,43.38
2023-04-22T15:03:10.989Z,37.38
2023-04-22T15:05:56.728Z,36.83
2023-04-22T15:08:42.138Z,35.85
2023-04-22T15:11:27.427Z,33.05
2023-04-22T15:14:13.606Z,35.17
2023-04-22T15:16:59.716Z,32.38
2023-04-22T15:19:45.585Z,32.63
2023-04-22T15:22:32.569Z,31.10
2023-04-22T15:25:18.548Z,34.20
2023-04-22T15:28:04.100Z,29.73
2023-04-22T15:30:50.226Z,27.90
2023-04-22T15:33:35.689Z,33.20
2023-04-22T15:36:21.866Z,29.55
2023-04-22T15:39:07.443Z,35.25
2023-04-22T15:41:53.102Z,34.58
2023-04-22T15:44:38.569Z,33.45
2023-04-22T15:47:24.575Z,33.35
2023-04-22T15:50:10.699Z,36.22
2023-04-22T15:52:56.035Z,35.13
2023-04-22T15:55:41.446Z,44.85
2023-04-22T15:58:28.902Z,41.28
2023-04-22T16:01:19.522Z,40.42
2023-04-22T16:04:05.616Z,37.97
2023-04-22T16:06:51.579Z,35.65
2023-04-22T16:09:36.903Z,37.83
2023-04-22T16:12:23.339Z,33.28
2023-04-22T16:15:10.134Z,39.95
2023-04-22T16:17:55.803Z,37.67
2023-04-22T16:20:41.510Z,33.88
2023-04-22T16:23:27.078Z,30.27
2023-04-22T16:26:12.076Z,27.08
2023-04-22T16:28:57.751Z,28.95
2023-04-22T16:31:42.880Z,31.08
2023-04-22T16:34:28.411Z,28.85
2023-04-22T16:37:14.806Z,25.60
2023-04-22T16:40:01.149Z,27.70
2023-04-22T16:42:46.535Z,23.33
2023-04-22T16:45:32.273Z,24.88
2023-04-22T16:48:17.373Z,25.33
2023-04-22T16:51:03.306Z,23.80
2023-04-22T16:53:48.877Z,24.77
2023-04-22T16:56:34.383Z,23.92
2023-04-22T16:59:19.814Z,22.52
2023-04-22T17:02:05.878Z,22.88
2023-04-22T17:04:51.583Z,22.10
2023-04-22T17:07:37.117Z,21.20
2023-04-22T17:10:22.533Z,23.50
2023-04-22T17:13:08.239Z,22.40
2023-04-22T17:15:53.687Z,23.83
2023-04-22T17:18:38.856Z,22.13
2023-04-22T17:21:25.163Z,22.10
2023-04-22T17:24:10.518Z,24.15
2023-04-22T17:26:55.963Z,21.27
2023-04-22T17:29:41.889Z,22.08
2023-04-22T17:32:27.359Z,23.08
2023-04-22T17:35:12.815Z,22.88
2023-04-22T17:37:58.144Z,20.70
2023-04-22T17:40:43.711Z,20.40
2023-04-22T17:43:29.524Z,19.42
2023-04-22T17:46:15.053Z,20.42
2023-04-22T17:49:00.879Z,20.80
2023-04-22T17:51:46.467Z,20.65
2023-04-22T17:54:32.025Z,22.33
2023-04-22T17:57:17.253Z,19.80
2023-04-22T18:00:03.572Z,20.95
2023-04-22T18:02:53.608Z,23.60
2023-04-22T18:05:43.273Z,20.20
2023-04-22T18:08:28.637Z,22.52
2023-04-22T18:11:14.094Z,21.70
2023-04-22T18:13:59.619Z,20.52
2023-04-22T18:16:45.117Z,21.17
2023-04-22T18:19:30.414Z,19.15
2023-04-22T18:22:18.126Z,20.08
2023-04-22T18:25:03.617Z,22.27
2023-04-22T18:27:50.651Z,21.42
2023-04-22T18:30:36.268Z,20.98
2023-04-22T18:33:21.323Z,19.48
2023-04-22T18:36:06.945Z,20.67
2023-04-22T18:38:52.329Z,18.65
2023-04-22T18:41:39.401Z,18.27
2023-04-22T18:44:24.734Z,18.48
2023-04-22T18:47:10.203Z,19.02
2023-04-22T18:49:56.007Z,18.35
2023-04-22T18:52:42.323Z,18.58
2023-04-22T18:55:27.490Z,19.63
2023-04-22T18:58:13.239Z,20.02
2023-04-22T19:00:58.881Z,18.60
2023-04-22T19:03:45.736Z,18.83
2023-04-22T19:06:32.047Z,18.98
2023-04-22T19:09:17.302Z,19.08
2023-04-22T19:12:02.856Z,19.83
2023-04-22T19:14:48.619Z,18.80
2023-04-22T19:17:34.714Z,17.67
2023-04-22T19:20:20.714Z,16.15
2023-04-22T19:23:06.041Z,17.08
2023-04-22T19:25:51.744Z,21.73
2023-04-22T19:28:37.460Z,19.73
2023-04-22T19:31:22.670Z,20.17
2023-04-22T19:34:08.683Z,23.08
2023-04-22T19:36:54.540Z,22.20
2023-04-22T19:39:40.177Z,21.45
2023-04-22T19:42:27.214Z,21.00
2023-04-22T19:45:12.961Z,18.45
2023-04-22T19:47:58.608Z,18.80
2023-04-22T19:50:44.773Z,18.55
2023-04-22T19:53:31.217Z,20.55
2023-04-22T19:56:16.879Z,17.40
2023-04-22T19:59:02.474Z,18.80
2023-04-22T20:01:48.331Z,16.83
2023-04-22T20:04:33.811Z,17.42
2023-04-22T20:07:19.837Z,16.63
2023-04-22T20:10:07.748Z,17.33
2023-04-22T20:12:53.790Z,18.33
2023-04-22T20:15:39.118Z,16.50
2023-04-22T20:18:27.003Z,18.38
2023-04-22T20:21:13.801Z,20.85
2023-04-22T20:24:01.673Z,20.42
2023-04-22T20:26:49.994Z,21.80
2023-04-22T20:29:38.195Z,21.83
2023-04-22T20:32:24.653Z,22.42
2023-04-22T20:35:15.210Z,22.20
2023-04-22T20:38:02.440Z,23.00
2023-04-22T20:40:48.656Z,22.10
2023-04-22T20:43:35.315Z,20.80
2023-04-22T20:46:23.354Z,20.60
2023-04-22T20:49:09.003Z,20.40
2023-04-22T20:51:56.240Z,21.50
2023-04-22T20:54:41.410Z,20.88
2023-04-22T20:57:26.954Z,21.40
2023-04-22T21:00:12.771Z,22.33
2023-04-22T21:03:00.359Z,20.23
2023-04-22T21:05:46.844Z,22.80
2023-04-22T21:08:34.430Z,23.77
2023-04-22T21:11:20.029Z,21.67
2023-04-22T21:14:05.797Z,21.85
2023-04-22T21:17:13.503Z,24.75
2023-04-22T21:19:59.485Z,24.95
2023-04-22T21:22:46.888Z,26.45
2023-04-22T21:25:33.113Z,26.20
2023-04-22T21:28:18.639Z,26.15
2023-04-22T21:31:04.515Z,28.60
2023-04-22T21:33:50.477Z,26.63
2023-04-22T21:36:36.441Z,31.30
2023-04-22T21:39:21.745Z,27.42
2023-04-22T21:42:10.491Z,29.08
2023-04-22T21:44:56.185Z,27.75
2023-04-22T21:47:41.990Z,27.77
2023-04-22T21:50:30.032Z,25.65
2023-04-22T21:53:15.704Z,29.08
2023-04-22T21:56:01.102Z,29.65
2023-04-22T21:58:46.820Z,31.83
2023-04-22T22:01:32.799Z,31.80
2023-04-22T22:04:18.218Z,29.02
2023-04-22T22:07:03.588Z,30.45
2023-04-22T22:09:49.034Z,33.22
2023-04-22T22:12:34.809Z,34.28
2023-04-22T22:15:20.284Z,33.20
2023-04-22T22:18:06.632Z,33.47
2023-04-22T22:20:51.836Z,32.80
2023-04-22T22:23:37.402Z,33.70
2023-04-22T22:26:22.946Z,37.75
2023-04-22T22:29:15.054Z,35.75
2023-04-22T22:32:00.376Z,38.55
2023-04-22T22:34:45.640Z,41.03
2023-04-22T22:37:31.368Z,46.72
2023-04-22T22:40:16.912Z,48.15
2023-04-22T22:43:02.248Z,46.75
2023-04-22T22:45:47.900Z,47.63
2023-04-22T22:48:33.416Z,44.72
2023-04-22T22:51:19.039Z,48.42
2023-04-22T22:54:05.098Z,48.83
2023-04-22T22:56:50.434Z,50.38
2023-04-22T22:59:37.177Z,50.58
2023-04-22T23:02:22.448Z,50.20
2023-04-22T23:05:10.666Z,46.20
2023-04-22T23:07:56.483Z,51.83
2023-04-22T23:10:41.947Z,53.08
2023-04-22T23:13:27.543Z,58.13
2023-04-22T23:16:12.922Z,53.22
2023-04-22T23:18:58.737Z,55.13
2023-04-22T23:21:45.491Z,55.20
2023-04-22T23:24:31.190Z,54.70
2023-04-22T23:27:17.438Z,55.80
2023-04-22T23:30:04.691Z,56.03
2023-04-22T23:32:51.804Z,55.13
2023-04-22T23:35:40.563Z,57.60
2023-04-22T23:38:27.422Z,61.65
2023-04-22T23:41:12.647Z,64.18
2023-04-22T23:43:57.840Z,76.65
2023-04-22T23:46:43.511Z,69.35
2023-04-22T23:49:29.495Z,68.07
2023-04-22T23:52:14.851Z,63.25
2023-04-22T23:55:00.748Z,63.25
2023-04-22T23:57:46.671Z,58.40
